SKEJSKBG [TCW765]

Guest
Details From SKEJ - Yariguies
To SKBG - Palonegro
Flight Number TCW765
Tags Real Commercial Decoded
Created
Modified
Stats Distance 38 nm / 70 km
Max Altitude 120 ft / 37 m
Waypoints 3
Social Downloads 7
Likes 0
Share VATSIM

Download

Looking for another format? Having issues loading an existing format? Contact us
Advertisement - Login to hide

Notes

Decoded

Route

SKEJ SEBAS SKBG

ID Type Via Altitude Latitude Longitude Leg Dist Tot Dist Heading (true) Name
O SKEJ APT - 0 ft / 0 m 7.01735˚ -73.81099˚ - 0 nm - YARIGUIES
SEBAS FIX - 120 ft / 37 m 7.07694˚ -73.51528˚ 17 nm 17 nm 79° / 79° -
O SKBG APT - 0 ft / 0 m 7.13606˚ -73.18839˚ 19 nm 37 nm 80° / 80° -

Altitude Profile

Advertisement - Login to hide

SKEJ

Details ICAO SKEJ (EJA)
Name YARIGUIES
Region Colombia
Timezone America/Bogota (UTC-5.0)
Stats Elevation 412 ft / 126 m (AMSL)
Location 7.024329° -73.806798°
Runways 1
Magnetic Variation 7.815° W

METAR

SKEJ 132000Z 22004KT 9999 SCT015 30/24 A2980

Decode

TAF

Not found

Departure Runways

ID Width Length Bearing (true) Bearing (mag) Surface Threshold Offset Overrun Length
04 148 ft / 45 m 5,930 ft / 1,808 m 30.76° 38.57° Asphalt 0 ft / 0 m 0 ft / 0 m
22 148 ft / 45 m 5,930 ft / 1,808 m 210.76° 218.57° Asphalt 0 ft / 0 m 0 ft / 0 m

SKBG

Details ICAO SKBG (BGA)
Name PALONEGRO
Region Colombia
Timezone America/Bogota (UTC-5.0)
Stats Elevation 3,896 ft / 1,188 m (AMSL)
Location 7.126500° -73.184764°
Runways 1
Magnetic Variation 8.231° W

METAR

SKBG 132000Z 34009KT 9999 SCT017 24/19 A2997 WS R35

Decode

TAF

Not found

Destination Runways

ID Width Length Bearing (true) Bearing (mag) Surface Threshold Offset Overrun Length
16 164 ft / 50 m 7,452 ft / 2,271 m 159.37° 167.60° Asphalt 0 ft / 0 m 0 ft / 0 m
34 164 ft / 50 m 7,452 ft / 2,271 m 339.37° 347.60° Asphalt 0 ft / 0 m 0 ft / 0 m

Approach Navaids

Runway Type Ident Frequency Range Bearing (true) Bearing (mag) Slope Elevation
34 Localiser IBGA 110.70 MHz 18 nm / 33 km 339.37° 347.60° - 3,897 ft / 1,188 m (AMSL)
34 Glidescope IBGA 110.70 MHz 10 nm / 19 km 339.37° 347.60° 3.00° 3,897 ft / 1,188 m (AMSL)
34 DME IBGA 110.70 MHz 18 nm / 33 km - - - 3,897 ft / 1,188 m (AMSL)